sensor_id;sensor_type;location;lat;lon;timestamp;pressure;altitude;pressure_sealevel;temperature;humidity
58473;BME280;44775;51.564;5.460;2024-01-10T00:01:03;102787.41;;;-5.42;77.77
58473;BME280;44775;51.564;5.460;2024-01-10T00:03:28;102783.97;;;-5.48;81.10
58473;BME280;44775;51.564;5.460;2024-01-10T00:05:53;102775.47;;;-5.62;76.26
58473;BME280;44775;51.564;5.460;2024-01-10T00:08:20;102782.78;;;-5.20;86.60
58473;BME280;44775;51.564;5.460;2024-01-10T00:10:45;102772.91;;;-5.63;78.03
58473;BME280;44775;51.564;5.460;2024-01-10T00:13:11;102781.50;;;-5.57;77.25
58473;BME280;44775;51.564;5.460;2024-01-10T00:15:36;102772.03;;;-5.67;75.89
58473;BME280;44775;51.564;5.460;2024-01-10T00:18:01;102770.44;;;-5.79;76.00
58473;BME280;44775;51.564;5.460;2024-01-10T00:20:27;102771.38;;;-5.84;76.71
58473;BME280;44775;51.564;5.460;2024-01-10T00:22:52;102771.88;;;-4.87;91.01
58473;BME280;44775;51.564;5.460;2024-01-10T00:25:18;102778.03;;;-5.60;79.30
58473;BME280;44775;51.564;5.460;2024-01-10T00:27:43;102762.88;;;-5.26;86.04
58473;BME280;44775;51.564;5.460;2024-01-10T00:30:08;102763.28;;;-5.58;80.42
58473;BME280;44775;51.564;5.460;2024-01-10T00:32:34;102756.22;;;-5.49;86.24
58473;BME280;44775;51.564;5.460;2024-01-10T00:34:59;102761.41;;;-5.49;84.11
58473;BME280;44775;51.564;5.460;2024-01-10T00:37:24;102764.91;;;-5.51;80.55
58473;BME280;44775;51.564;5.460;2024-01-10T00:39:49;102761.25;;;-5.35;79.35
58473;BME280;44775;51.564;5.460;2024-01-10T00:42:15;102754.03;;;-5.14;82.47
58473;BME280;44775;51.564;5.460;2024-01-10T00:44:40;102745.13;;;-5.00;91.05
58473;BME280;44775;51.564;5.460;2024-01-10T00:47:05;102760.13;;;-5.17;82.13
58473;BME280;44775;51.564;5.460;2024-01-10T00:49:31;102767.38;;;-5.40;80.04
58473;BME280;44775;51.564;5.460;2024-01-10T00:51:56;102756.63;;;-4.56;93.53
58473;BME280;44775;51.564;5.460;2024-01-10T00:54:21;102756.84;;;-5.31;79.94
58473;BME280;44775;51.564;5.460;2024-01-10T00:56:46;102753.72;;;-5.56;78.01
58473;BME280;44775;51.564;5.460;2024-01-10T00:59:12;102753.81;;;-5.67;78.79
58473;BME280;44775;51.564;5.460;2024-01-10T01:01:37;102751.06;;;-5.55;84.30
58473;BME280;44775;51.564;5.460;2024-01-10T01:04:02;102752.56;;;-5.37;82.86
58473;BME280;44775;51.564;5.460;2024-01-10T01:06:28;102732.91;;;-5.61;80.85
58473;BME280;44775;51.564;5.460;2024-01-10T01:08:53;102743.75;;;-5.95;79.27
58473;BME280;44775;51.564;5.460;2024-01-10T01:11:18;102728.34;;;-6.13;79.69
58473;BME280;44775;51.564;5.460;2024-01-10T01:13:44;102743.03;;;-5.38;90.56
58473;BME280;44775;51.564;5.460;2024-01-10T01:16:10;102751.31;;;-5.05;92.44
58473;BME280;44775;51.564;5.460;2024-01-10T01:18:35;102744.16;;;-5.56;82.56
58473;BME280;44775;51.564;5.460;2024-01-10T01:21:00;102746.69;;;-5.51;83.92
58473;BME280;44775;51.564;5.460;2024-01-10T01:23:26;102749.97;;;-5.35;85.88
58473;BME280;44775;51.564;5.460;2024-01-10T01:25:51;102747.72;;;-5.64;83.65
58473;BME280;44775;51.564;5.460;2024-01-10T01:28:17;102746.34;;;-5.25;83.69
58473;BME280;44775;51.564;5.460;2024-01-10T01:30:42;102745.91;;;-5.58;79.55
58473;BME280;44775;51.564;5.460;2024-01-10T01:33:07;102738.47;;;-5.19;87.58
58473;BME280;44775;51.564;5.460;2024-01-10T01:35:32;102738.28;;;-5.75;83.50
58473;BME280;44775;51.564;5.460;2024-01-10T01:37:58;102737.88;;;-5.41;88.42
58473;BME280;44775;51.564;5.460;2024-01-10T01:40:23;102750.72;;;-5.26;89.28
58473;BME280;44775;51.564;5.460;2024-01-10T01:42:48;102752.09;;;-5.68;82.42
58473;BME280;44775;51.564;5.460;2024-01-10T01:45:13;102746.09;;;-5.75;82.54
58473;BME280;44775;51.564;5.460;2024-01-10T01:47:40;102730.63;;;-5.88;80.56
58473;BME280;44775;51.564;5.460;2024-01-10T01:50:06;102729.75;;;-5.87;86.47
58473;BME280;44775;51.564;5.460;2024-01-10T01:52:32;102730.75;;;-5.96;86.89
58473;BME280;44775;51.564;5.460;2024-01-10T01:55:00;102736.91;;;-6.03;84.63
58473;BME280;44775;51.564;5.460;2024-01-10T01:57:25;102735.75;;;-5.81;89.72
58473;BME280;44775;51.564;5.460;2024-01-10T01:59:51;102737.25;;;-5.60;91.64
58473;BME280;44775;51.564;5.460;2024-01-10T02:02:16;102728.03;;;-5.19;96.63
58473;BME280;44775;51.564;5.460;2024-01-10T02:04:42;102743.78;;;-5.98;85.99
58473;BME280;44775;51.564;5.460;2024-01-10T02:07:08;102734.03;;;-5.12;97.33
58473;BME280;44775;51.564;5.460;2024-01-10T02:09:33;102728.91;;;-5.91;86.05
58473;BME280;44775;51.564;5.460;2024-01-10T02:11:58;102719.66;;;-6.15;84.66
58473;BME280;44775;51.564;5.460;2024-01-10T02:14:23;102725.41;;;-5.17;96.42
58473;BME280;44775;51.564;5.460;2024-01-10T02:16:49;102723.84;;;-5.99;87.63
58473;BME280;44775;51.564;5.460;2024-01-10T02:19:33;102720.75;;;-5.59;91.65
58473;BME280;44775;51.564;5.460;2024-01-10T02:21:59;102730.50;;;-5.78;91.54
58473;BME280;44775;51.564;5.460;2024-01-10T02:24:25;102718.19;;;-5.65;92.04
58473;BME280;44775;51.564;5.460;2024-01-10T02:26:50;102713.53;;;-5.38;93.45
58473;BME280;44775;51.564;5.460;2024-01-10T02:29:15;102724.66;;;-5.93;85.87
58473;BME280;44775;51.564;5.460;2024-01-10T02:31:41;102721.19;;;-5.28;95.78
58473;BME280;44775;51.564;5.460;2024-01-10T02:34:06;102723.34;;;-5.59;89.74
58473;BME280;44775;51.564;5.460;2024-01-10T02:36:31;102716.47;;;-5.63;91.21
58473;BME280;44775;51.564;5.460;2024-01-10T02:38:56;102724.59;;;-5.90;85.30
58473;BME280;44775;51.564;5.460;2024-01-10T02:41:22;102723.50;;;-5.74;87.53
58473;BME280;44775;51.564;5.460;2024-01-10T02:43:47;102719.09;;;-5.66;88.18
58473;BME280;44775;51.564;5.460;2024-01-10T02:46:12;102720.75;;;-5.59;90.78
58473;BME280;44775;51.564;5.460;2024-01-10T02:48:38;102713.22;;;-5.83;84.84
58473;BME280;44775;51.564;5.460;2024-01-10T02:51:03;102685.94;;;-6.23;85.12
58473;BME280;44775;51.564;5.460;2024-01-10T02:53:28;102708.56;;;-5.58;93.38
58473;BME280;44775;51.564;5.460;2024-01-10T02:55:55;102709.31;;;-5.49;90.50
58473;BME280;44775;51.564;5.460;2024-01-10T02:58:20;102699.00;;;-5.56;93.02
58473;BME280;44775;51.564;5.460;2024-01-10T03:00:46;102699.78;;;-5.51;87.86
58473;BME280;44775;51.564;5.460;2024-01-10T03:03:12;102701.63;;;-5.56;90.29
58473;BME280;44775;51.564;5.460;2024-01-10T03:05:37;102698.91;;;-5.49;87.70
58473;BME280;44775;51.564;5.460;2024-01-10T03:08:02;102694.66;;;-5.56;85.74
58473;BME280;44775;51.564;5.460;2024-01-10T03:10:29;102689.31;;;-5.45;91.91
58473;BME280;44775;51.564;5.460;2024-01-10T03:12:54;102695.69;;;-5.71;87.72
58473;BME280;44775;51.564;5.460;2024-01-10T03:15:19;102687.34;;;-5.29;95.58
58473;BME280;44775;51.564;5.460;2024-01-10T03:17:45;102701.81;;;-5.73;84.68
58473;BME280;44775;51.564;5.460;2024-01-10T03:20:11;102691.94;;;-4.89;94.54
58473;BME280;44775;51.564;5.460;2024-01-10T03:22:36;102690.34;;;-5.57;88.37
58473;BME280;44775;51.564;5.460;2024-01-10T03:25:02;102679.75;;;-4.87;94.96
58473;BME280;44775;51.564;5.460;2024-01-10T03:27:27;102677.31;;;-5.57;85.50
58473;BME280;44775;51.564;5.460;2024-01-10T03:29:53;102684.25;;;-5.56;89.12
58473;BME280;44775;51.564;5.460;2024-01-10T03:32:18;102667.53;;;-5.39;89.05
58473;BME280;44775;51.564;5.460;2024-01-10T03:34:43;102665.41;;;-5.14;95.13
58473;BME280;44775;51.564;5.460;2024-01-10T03:37:08;102674.78;;;-5.03;95.35
58473;BME280;44775;51.564;5.460;2024-01-10T03:39:34;102662.44;;;-4.91;96.54
58473;BME280;44775;51.564;5.460;2024-01-10T03:41:59;102671.78;;;-5.35;89.18
58473;BME280;44775;51.564;5.460;2024-01-10T03:44:26;102679.41;;;-5.22;88.89
58473;BME280;44775;51.564;5.460;2024-01-10T03:46:51;102677.06;;;-5.38;85.86
58473;BME280;44775;51.564;5.460;2024-01-10T03:49:17;102669.84;;;-5.21;90.01
58473;BME280;44775;51.564;5.460;2024-01-10T03:51:42;102666.34;;;-5.20;88.17
58473;BME280;44775;51.564;5.460;2024-01-10T03:54:08;102670.34;;;-5.58;85.36
58473;BME280;44775;51.564;5.460;2024-01-10T03:56:33;102665.94;;;-5.51;84.00
58473;BME280;44775;51.564;5.460;2024-01-10T03:58:59;102658.41;;;-5.74;86.50
58473;BME280;44775;51.564;5.460;2024-01-10T04:01:26;102651.56;;;-5.81;86.00
58473;BME280;44775;51.564;5.460;2024-01-10T04:03:51;102644.97;;;-5.42;91.29
58473;BME280;44775;51.564;5.460;2024-01-10T04:06:17;102654.53;;;-5.44;91.20
58473;BME280;44775;51.564;5.460;2024-01-10T04:08:42;102651.03;;;-5.40;90.92
58473;BME280;44775;51.564;5.460;2024-01-10T04:11:08;102645.97;;;-5.54;86.16
58473;BME280;44775;51.564;5.460;2024-01-10T04:13:34;102641.13;;;-5.78;88.98
58473;BME280;44775;51.564;5.460;2024-01-10T04:15:59;102642.81;;;-5.77;87.50
58473;BME280;44775;51.564;5.460;2024-01-10T04:18:25;102630.81;;;-5.87;85.81
58473;BME280;44775;51.564;5.460;2024-01-10T04:20:50;102642.78;;;-5.74;92.34
58473;BME280;44775;51.564;5.460;2024-01-10T04:23:16;102641.41;;;-5.98;87.83
58473;BME280;44775;51.564;5.460;2024-01-10T04:25:41;102642.97;;;-5.86;87.57
58473;BME280;44775;51.564;5.460;2024-01-10T04:28:06;102638.78;;;-5.98;87.65
58473;BME280;44775;51.564;5.460;2024-01-10T04:30:31;102630.09;;;-5.35;97.40
58473;BME280;44775;51.564;5.460;2024-01-10T04:32:57;102631.63;;;-5.84;90.87
58473;BME280;44775;51.564;5.460;2024-01-10T04:35:22;102638.28;;;-5.61;90.90
58473;BME280;44775;51.564;5.460;2024-01-10T04:37:47;102637.84;;;-5.29;94.06
58473;BME280;44775;51.564;5.460;2024-01-10T04:40:13;102638.44;;;-5.12;96.76
58473;BME280;44775;51.564;5.460;2024-01-10T04:42:38;102648.78;;;-5.66;88.94
58473;BME280;44775;51.564;5.460;2024-01-10T04:45:04;102646.03;;;-5.00;98.03
58473;BME280;44775;51.564;5.460;2024-01-10T04:47:29;102646.44;;;-5.24;92.35
58473;BME280;44775;51.564;5.460;2024-01-10T04:49:55;102630.63;;;-5.72;89.42
58473;BME280;44775;51.564;5.460;2024-01-10T04:52:20;102645.31;;;-5.66;89.11
58473;BME280;44775;51.564;5.460;2024-01-10T04:54:45;102647.38;;;-5.28;94.32
58473;BME280;44775;51.564;5.460;2024-01-10T04:57:11;102644.34;;;-5.59;89.54
58473;BME280;44775;51.564;5.460;2024-01-10T04:59:36;102637.50;;;-5.68;91.63
58473;BME280;44775;51.564;5.460;2024-01-10T05:02:01;102628.88;;;-5.72;91.72
58473;BME280;44775;51.564;5.460;2024-01-10T05:04:27;102640.69;;;-5.48;92.45
58473;BME280;44775;51.564;5.460;2024-01-10T05:06:52;102629.47;;;-5.51;93.12
58473;BME280;44775;51.564;5.460;2024-01-10T05:09:17;102632.53;;;-5.25;98.37
58473;BME280;44775;51.564;5.460;2024-01-10T05:11:43;102637.03;;;-5.34;95.88
58473;BME280;44775;51.564;5.460;2024-01-10T05:14:12;102634.47;;;-5.36;94.50
58473;BME280;44775;51.564;5.460;2024-01-10T05:16:37;102621.63;;;-4.92;98.33
58473;BME280;44775;51.564;5.460;2024-01-10T05:19:02;102632.19;;;-5.59;90.93
58473;BME280;44775;51.564;5.460;2024-01-10T05:21:29;102630.34;;;-4.96;96.06
58473;BME280;44775;51.564;5.460;2024-01-10T05:23:55;102628.34;;;-4.81;94.03
58473;BME280;44775;51.564;5.460;2024-01-10T05:26:20;102635.31;;;-5.35;89.87
58473;BME280;44775;51.564;5.460;2024-01-10T05:28:46;102616.34;;;-5.45;89.66
58473;BME280;44775;51.564;5.460;2024-01-10T05:31:11;102625.56;;;-5.84;88.25
58473;BME280;44775;51.564;5.460;2024-01-10T05:33:36;102628.78;;;-5.07;98.53
58473;BME280;44775;51.564;5.460;2024-01-10T05:36:02;102628.94;;;-5.78;88.62
58473;BME280;44775;51.564;5.460;2024-01-10T05:38:27;102635.69;;;-5.61;92.72
58473;BME280;44775;51.564;5.460;2024-01-10T05:40:53;102639.38;;;-5.76;89.06
58473;BME280;44775;51.564;5.460;2024-01-10T05:43:18;102626.59;;;-5.33;97.09
58473;BME280;44775;51.564;5.460;2024-01-10T05:45:43;102636.53;;;-5.61;92.72
58473;BME280;44775;51.564;5.460;2024-01-10T05:48:09;102636.47;;;-5.55;94.12
58473;BME280;44775;51.564;5.460;2024-01-10T05:50:34;102635.91;;;-5.78;92.94
58473;BME280;44775;51.564;5.460;2024-01-10T05:52:59;102630.97;;;-4.81;100.00
58473;BME280;44775;51.564;5.460;2024-01-10T05:55:24;102623.50;;;-5.61;93.46
58473;BME280;44775;51.564;5.460;2024-01-10T05:57:50;102636.38;;;-5.50;93.56
58473;BME280;44775;51.564;5.460;2024-01-10T06:00:16;102620.56;;;-5.97;92.93
58473;BME280;44775;51.564;5.460;2024-01-10T06:02:42;102630.09;;;-5.35;98.08
58473;BME280;44775;51.564;5.460;2024-01-10T06:05:11;102628.34;;;-5.93;91.95
58473;BME280;44775;51.564;5.460;2024-01-10T06:07:37;102632.53;;;-5.85;94.36
58473;BME280;44775;51.564;5.460;2024-01-10T06:10:02;102632.66;;;-5.94;94.55
58473;BME280;44775;51.564;5.460;2024-01-10T06:12:28;102625.41;;;-5.72;96.23
58473;BME280;44775;51.564;5.460;2024-01-10T06:14:53;102631.22;;;-6.16;94.34
58473;BME280;44775;51.564;5.460;2024-01-10T06:17:19;102619.31;;;-6.39;95.47
58473;BME280;44775;51.564;5.460;2024-01-10T06:19:44;102615.81;;;-6.33;94.01
58473;BME280;44775;51.564;5.460;2024-01-10T06:22:09;102606.91;;;-5.52;100.00
58473;BME280;44775;51.564;5.460;2024-01-10T06:24:36;102619.47;;;-5.82;96.18
58473;BME280;44775;51.564;5.460;2024-01-10T06:27:03;102618.28;;;-6.23;94.36
58473;BME280;44775;51.564;5.460;2024-01-10T06:29:29;102601.78;;;-6.20;98.51
58473;BME280;44775;51.564;5.460;2024-01-10T06:31:54;102609.97;;;-5.86;100.00
58473;BME280;44775;51.564;5.460;2024-01-10T06:34:21;102616.91;;;-5.83;96.12
58473;BME280;44775;51.564;5.460;2024-01-10T06:36:47;102616.25;;;-6.01;95.35
58473;BME280;44775;51.564;5.460;2024-01-10T06:39:13;102620.09;;;-6.29;96.59
58473;BME280;44775;51.564;5.460;2024-01-10T06:41:39;102616.56;;;-6.25;97.01
58473;BME280;44775;51.564;5.460;2024-01-10T06:44:04;102616.13;;;-5.90;100.00
58473;BME280;44775;51.564;5.460;2024-01-10T06:46:30;102603.38;;;-6.11;100.00
58473;BME280;44775;51.564;5.460;2024-01-10T06:48:57;102620.41;;;-6.60;97.63
58473;BME280;44775;51.564;5.460;2024-01-10T06:51:22;102625.75;;;-6.75;98.65
58473;BME280;44775;51.564;5.460;2024-01-10T06:53:48;102629.56;;;-6.25;100.00
58473;BME280;44775;51.564;5.460;2024-01-10T06:56:13;102628.97;;;-6.52;100.00
58473;BME280;44775;51.564;5.460;2024-01-10T06:58:39;102629.22;;;-6.75;99.85
58473;BME280;44775;51.564;5.460;2024-01-10T07:01:04;102614.72;;;-6.14;100.00
58473;BME280;44775;51.564;5.460;2024-01-10T07:03:31;102631.03;;;-6.00;100.00
58473;BME280;44775;51.564;5.460;2024-01-10T07:05:56;102621.72;;;-5.57;100.00
58473;BME280;44775;51.564;5.460;2024-01-10T07:08:22;102631.50;;;-5.73;100.00
58473;BME280;44775;51.564;5.460;2024-01-10T07:10:47;102622.16;;;-5.86;100.00
58473;BME280;44775;51.564;5.460;2024-01-10T07:13:12;102626.34;;;-5.78;99.21
58473;BME280;44775;51.564;5.460;2024-01-10T07:15:38;102636.53;;;-6.24;99.40
58473;BME280;44775;51.564;5.460;2024-01-10T07:18:04;102633.41;;;-6.60;99.71
58473;BME280;44775;51.564;5.460;2024-01-10T07:20:29;102632.41;;;-6.47;100.00
58473;BME280;44775;51.564;5.460;2024-01-10T07:22:54;102642.19;;;-6.73;100.00
58473;BME280;44775;51.564;5.460;2024-01-10T07:25:20;102624.94;;;-6.80;100.00
58473;BME280;44775;51.564;5.460;2024-01-10T07:27:47;102634.47;;;-6.01;100.00
58473;BME280;44775;51.564;5.460;2024-01-10T07:30:12;102635.75;;;-6.35;100.00
58473;BME280;44775;51.564;5.460;2024-01-10T07:32:41;102631.41;;;-5.65;100.00
58473;BME280;44775;51.564;5.460;2024-01-10T07:35:07;102614.66;;;-5.48;100.00
58473;BME280;44775;51.564;5.460;2024-01-10T07:37:39;102622.25;;;-5.94;99.93
58473;BME280;44775;51.564;5.460;2024-01-10T07:40:06;102632.59;;;-5.89;100.00
58473;BME280;44775;51.564;5.460;2024-01-10T07:42:35;102617.34;;;-6.17;99.25
58473;BME280;44775;51.564;5.460;2024-01-10T07:45:00;102624.69;;;-5.82;98.00
58473;BME280;44775;51.564;5.460;2024-01-10T07:47:32;102630.06;;;-5.94;97.55
58473;BME280;44775;51.564;5.460;2024-01-10T07:49:59;102614.66;;;-5.48;100.00
58473;BME280;44775;51.564;5.460;2024-01-10T07:52:24;102613.78;;;-6.10;100.00
58473;BME280;44775;51.564;5.460;2024-01-10T07:54:50;102617.66;;;-6.46;99.56
58473;BME280;44775;51.564;5.460;2024-01-10T07:57:15;102612.41;;;-6.40;100.00
58473;BME280;44775;51.564;5.460;2024-01-10T07:59:44;102622.81;;;-5.72;100.00
58473;BME280;44775;51.564;5.460;2024-01-10T08:02:09;102607.38;;;-5.27;100.00
58473;BME280;44775;51.564;5.460;2024-01-10T08:04:35;102612.69;;;-4.31;100.00
58473;BME280;44775;51.564;5.460;2024-01-10T08:07:01;102624.97;;;-5.40;100.00
58473;BME280;44775;51.564;5.460;2024-01-10T08:09:26;102630.19;;;-5.41;100.00
58473;BME280;44775;51.564;5.460;2024-01-10T08:11:51;102631.63;;;-5.84;97.46
58473;BME280;44775;51.564;5.460;2024-01-10T08:14:17;102618.53;;;-5.76;100.00
58473;BME280;44775;51.564;5.460;2024-01-10T08:16:42;102625.59;;;-4.73;100.00
58473;BME280;44775;51.564;5.460;2024-01-10T08:19:08;102625.78;;;-5.36;98.64
58473;BME280;44775;51.564;5.460;2024-01-10T08:21:33;102631.09;;;-4.90;100.00
58473;BME280;44775;51.564;5.460;2024-01-10T08:24:00;102608.59;;;-4.46;100.00
58473;BME280;44775;51.564;5.460;2024-01-10T08:26:26;102632.06;;;-4.44;100.00
58473;BME280;44775;51.564;5.460;2024-01-10T08:28:52;102637.41;;;-3.64;100.00
58473;BME280;44775;51.564;5.460;2024-01-10T08:31:17;102643.56;;;-4.10;100.00
58473;BME280;44775;51.564;5.460;2024-01-10T08:33:42;102632.72;;;-2.76;100.00
58473;BME280;44775;51.564;5.460;2024-01-10T08:36:07;102632.31;;;-3.70;100.00
58473;BME280;44775;51.564;5.460;2024-01-10T08:38:35;102648.50;;;-3.94;99.06
58473;BME280;44775;51.564;5.460;2024-01-10T08:41:00;102649.97;;;-3.81;100.00
58473;BME280;44775;51.564;5.460;2024-01-10T08:43:26;102645.72;;;-3.88;100.00
58473;BME280;44775;51.564;5.460;2024-01-10T08:45:51;102640.50;;;-3.88;100.00
58473;BME280;44775;51.564;5.460;2024-01-10T08:48:16;102642.81;;;-4.63;96.11
58473;BME280;44775;51.564;5.460;2024-01-10T08:50:42;102640.38;;;-4.24;99.96
58473;BME280;44775;51.564;5.460;2024-01-10T08:53:09;102644.38;;;-5.02;94.08
58473;BME280;44775;51.564;5.460;2024-01-10T08:55:35;102633.34;;;-5.21;94.53
58473;BME280;44775;51.564;5.460;2024-01-10T08:58:02;102639.28;;;-5.11;94.85
58473;BME280;44775;51.564;5.460;2024-01-10T09:00:28;102631.66;;;-5.22;94.17
58473;BME280;44775;51.564;5.460;2024-01-10T09:02:56;102636.50;;;-4.99;95.33
58473;BME280;44775;51.564;5.460;2024-01-10T09:05:22;102649.22;;;-4.79;95.33
58473;BME280;44775;51.564;5.460;2024-01-10T09:07:48;102645.94;;;-4.92;93.27
58473;BME280;44775;51.564;5.460;2024-01-10T09:10:13;102647.41;;;-4.29;98.46
58473;BME280;44775;51.564;5.460;2024-01-10T09:12:39;102653.69;;;-4.87;92.30
58473;BME280;44775;51.564;5.460;2024-01-10T09:15:04;102653.66;;;-4.86;94.24
58473;BME280;44775;51.564;5.460;2024-01-10T09:17:30;102648.06;;;-4.16;98.59
58473;BME280;44775;51.564;5.460;2024-01-10T09:19:55;102653.84;;;-4.00;96.27
58473;BME280;44775;51.564;5.460;2024-01-10T09:22:21;102653.75;;;-3.17;100.00
58473;BME280;44775;51.564;5.460;2024-01-10T09:24:46;102660.09;;;-2.91;96.64
58473;BME280;44775;51.564;5.460;2024-01-10T09:27:11;102659.88;;;-2.82;96.48
58473;BME280;44775;51.564;5.460;2024-01-10T09:29:37;102656.13;;;-2.05;95.56
58473;BME280;44775;51.564;5.460;2024-01-10T09:32:02;102669.22;;;-2.72;81.98
58473;BME280;44775;51.564;5.460;2024-01-10T09:34:29;102669.50;;;-2.48;83.31
58473;BME280;44775;51.564;5.460;2024-01-10T09:36:54;102654.03;;;-2.25;89.36
58473;BME280;44775;51.564;5.460;2024-01-10T09:39:19;102669.28;;;-2.08;87.09
58473;BME280;44775;51.564;5.460;2024-01-10T09:41:49;102660.03;;;-2.52;82.61
58473;BME280;44775;51.564;5.460;2024-01-10T09:44:17;102668.59;;;-1.83;95.35
58473;BME280;44775;51.564;5.460;2024-01-10T09:46:46;102668.84;;;-2.24;80.63
58473;BME280;44775;51.564;5.460;2024-01-10T09:49:13;102666.59;;;-2.05;83.00
58473;BME280;44775;51.564;5.460;2024-01-10T09:51:39;102667.31;;;-1.69;85.50
58473;BME280;44775;51.564;5.460;2024-01-10T09:54:04;102665.84;;;-1.79;77.43
58473;BME280;44775;51.564;5.460;2024-01-10T09:56:30;102662.69;;;-1.60;85.68
58473;BME280;44775;51.564;5.460;2024-01-10T09:58:58;102658.28;;;-2.21;72.26
58473;BME280;44775;51.564;5.460;2024-01-10T10:01:24;102686.16;;;-1.87;72.51
58473;BME280;44775;51.564;5.460;2024-01-10T10:03:50;102674.84;;;-1.58;78.32
58473;BME280;44775;51.564;5.460;2024-01-10T10:06:16;102678.44;;;-0.78;87.99
58473;BME280;44775;51.564;5.460;2024-01-10T10:08:41;102685.06;;;-0.92;72.83
58473;BME280;44775;51.564;5.460;2024-01-10T10:11:11;102682.69;;;-0.47;81.04
58473;BME280;44775;51.564;5.460;2024-01-10T10:13:37;102666.44;;;-0.85;72.91
58473;BME280;44775;51.564;5.460;2024-01-10T10:16:07;102672.00;;;-0.67;69.99
58473;BME280;44775;51.564;5.460;2024-01-10T10:18:34;102675.50;;;-0.68;70.70
58473;BME280;44775;51.564;5.460;2024-01-10T10:23:33;102672.66;;;-0.87;65.56
58473;BME280;44775;51.564;5.460;2024-01-10T10:28:40;102665.00;;;-0.68;71.57
58473;BME280;44775;51.564;5.460;2024-01-10T10:31:05;102680.22;;;-0.78;65.29
58473;BME280;44775;51.564;5.460;2024-01-10T10:33:32;102669.13;;;-0.86;63.20
58473;BME280;44775;51.564;5.460;2024-01-10T10:35:57;102661.81;;;-0.52;70.10
58473;BME280;44775;51.564;5.460;2024-01-10T10:38:23;102655.59;;;-0.24;74.10
58473;BME280;44775;51.564;5.460;2024-01-10T10:40:48;102658.00;;;-0.18;68.13
58473;BME280;44775;51.564;5.460;2024-01-10T10:43:18;102657.38;;;-0.25;65.02
58473;BME280;44775;51.564;5.460;2024-01-10T10:45:47;102657.56;;;-0.31;61.93
58473;BME280;44775;51.564;5.460;2024-01-10T10:48:16;102645.84;;;0.03;77.11
58473;BME280;44775;51.564;5.460;2024-01-10T10:50:50;102655.84;;;0.17;68.32
58473;BME280;44775;51.564;5.460;2024-01-10T10:53:16;102652.00;;;0.04;63.47
58473;BME280;44775;51.564;5.460;2024-01-10T10:55:44;102661.72;;;0.25;64.49
58473;BME280;44775;51.564;5.460;2024-01-10T10:58:11;102657.06;;;0.32;65.08
58473;BME280;44775;51.564;5.460;2024-01-10T11:00:37;102648.53;;;0.70;71.31
58473;BME280;44775;51.564;5.460;2024-01-10T11:03:04;102655.16;;;0.81;63.94
58473;BME280;44775;51.564;5.460;2024-01-10T11:05:30;102652.94;;;1.14;66.04
58473;BME280;44775;51.564;5.460;2024-01-10T11:07:56;102642.63;;;1.30;66.21
58473;BME280;44775;51.564;5.460;2024-01-10T11:10:30;102642.75;;;1.27;62.25
58473;BME280;44775;51.564;5.460;2024-01-10T11:15:56;102657.91;;;1.22;63.75
58473;BME280;44775;51.564;5.460;2024-01-10T11:18:44;102650.28;;;1.36;64.25
58473;BME280;44775;51.564;5.460;2024-01-10T11:23:56;102639.59;;;1.18;57.67
58473;BME280;44775;51.564;5.460;2024-01-10T11:26:23;102645.06;;;1.55;61.74
58473;BME280;44775;51.564;5.460;2024-01-10T11:28:48;102644.75;;;1.62;57.25
58473;BME280;44775;51.564;5.460;2024-01-10T11:31:15;102636.94;;;1.80;61.51
58473;BME280;44775;51.564;5.460;2024-01-10T11:33:41;102634.06;;;2.05;61.68
58473;BME280;44775;51.564;5.460;2024-01-10T11:36:18;102638.16;;;2.31;60.11
58473;BME280;44775;51.564;5.460;2024-01-10T11:41:42;102630.81;;;2.38;58.80
58473;BME280;44775;51.564;5.460;2024-01-10T11:46:34;102632.66;;;2.54;58.83
58473;BME280;44775;51.564;5.460;2024-01-10T11:49:00;102625.72;;;2.52;55.13
58473;BME280;44775;51.564;5.460;2024-01-10T11:51:25;102634.63;;;2.49;52.55
58473;BME280;44775;51.564;5.460;2024-01-10T11:53:51;102633.59;;;2.34;55.68
58473;BME280;44775;51.564;5.460;2024-01-10T11:56:18;102632.88;;;2.31;54.13
58473;BME280;44775;51.564;5.460;2024-01-10T11:59:03;102624.78;;;2.53;55.80
58473;BME280;44775;51.564;5.460;2024-01-10T12:01:35;102624.72;;;2.54;59.21
58473;BME280;44775;51.564;5.460;2024-01-10T12:04:02;102629.72;;;2.42;55.74
58473;BME280;44775;51.564;5.460;2024-01-10T12:06:29;102617.56;;;2.56;61.09
58473;BME280;44775;51.564;5.460;2024-01-10T12:08:54;102629.72;;;2.42;56.53
58473;BME280;44775;51.564;5.460;2024-01-10T12:11:19;102627.09;;;2.42;55.63
58473;BME280;44775;51.564;5.460;2024-01-10T12:13:45;102614.06;;;2.20;53.14
58473;BME280;44775;51.564;5.460;2024-01-10T12:16:12;102617.19;;;2.28;57.19
58473;BME280;44775;51.564;5.460;2024-01-10T12:18:38;102606.28;;;2.72;59.98
58473;BME280;44775;51.564;5.460;2024-01-10T12:21:04;102612.16;;;2.59;58.44
58473;BME280;44775;51.564;5.460;2024-01-10T12:23:30;102598.63;;;2.29;55.46
58473;BME280;44775;51.564;5.460;2024-01-10T12:25:57;102617.28;;;2.26;54.64
58473;BME280;44775;51.564;5.460;2024-01-10T12:28:23;102606.28;;;2.17;53.77
58473;BME280;44775;51.564;5.460;2024-01-10T12:30:48;102613.34;;;2.16;52.74
58473;BME280;44775;51.564;5.460;2024-01-10T12:33:13;102603.97;;;2.09;52.88
58473;BME280;44775;51.564;5.460;2024-01-10T12:35:38;102601.00;;;2.35;56.02
58473;BME280;44775;51.564;5.460;2024-01-10T12:38:07;102603.91;;;2.48;55.13
58473;BME280;44775;51.564;5.460;2024-01-10T12:40:35;102605.56;;;2.51;54.27
58473;BME280;44775;51.564;5.460;2024-01-10T12:43:06;102602.50;;;2.77;57.36
58473;BME280;44775;51.564;5.460;2024-01-10T12:45:34;102602.94;;;2.68;53.27
58473;BME280;44775;51.564;5.460;2024-01-10T12:48:00;102596.56;;;2.55;60.10
58473;BME280;44775;51.564;5.460;2024-01-10T12:50:25;102602.50;;;2.77;61.36
58473;BME280;44775;51.564;5.460;2024-01-10T12:52:51;102605.63;;;2.86;56.13
58473;BME280;44775;51.564;5.460;2024-01-10T12:55:16;102604.59;;;2.71;53.15
58473;BME280;44775;51.564;5.460;2024-01-10T12:57:43;102602.44;;;2.79;56.39
58473;BME280;44775;51.564;5.460;2024-01-10T13:00:09;102602.69;;;2.92;57.58